Stone Mountain, GA (30087)

7:37 PM EST on February 06, 2016 (GMT -0500)
Smoke Rise | | Change Station
CLOSE
Current Station
Personal Weather Station
Location: Stone Mountain, GA
Elevation: 971 ft
Nearby Weather Stations

Elev 971 ft 33.83 °N, 84.14 °W | Updated 17 minutes ago

Clear
Clear
41.2 °F
Feels Like 41 °F
N
0.0
Wind Variable Wind from WSW

Today
High -- | Low -- °F
--% Chance of Precip.
Yesterday
High -- | Low -- °F
Precip. -- in
Pressure 30.27 in
Visibility 10.0 miles
Clouds Scattered Clouds 8000 ft
Windchill 41 °F
Dew Point 22 °F
Humidity 45%
Rainfall 0.00 in
Snow Depth Not available.
7:29 AM 6:11 PM
Waning Crescent, 3% visible
METAR KPDK 062353Z 34008KT 10SM SCT080 07/M06 A3022 RMK AO2 SLP249 T00671061 10106 20067 58003
Pressure 30.27 in
Visibility 10.0 miles
Clouds Scattered Clouds 8000 ft
Windchill 41 °F
Dew Point 22 °F
Humidity 45%
Rainfall 0.00 in
Snow Depth Not available.
7:29 AM 6:11 PM
Waning Crescent, 3% visible
METAR KPDK 062353Z 34008KT 10SM SCT080 07/M06 A3022 RMK AO2 SLP249 T00671061 10106 20067 58003

10-Day Weather Forecast

Almanac

Astronomy

Feb. 06, 2016 Rise Set
Actual Time
Civil Twilight
Nautical Twilight
Astronomical Twilight
Moon
Length of Visible Light
Length of Day
Tomorrow will be .
, % of the Moon is Illuminated

Today's Extremes

State Highs State Lows

Community

WunderPhotos

Upload Photos

1,891,108 photos uploaded!

WunderBlog® & News

Nearby

Air Quality

  Air Quality AQ Index Pollutant
Not available.

Snow Depth

Station Depth Elevation

Earthquake Activity

City Distance Mag. Time & Date
Minimum magnitude displayed is 2.5.

Coastal Water Temperatures

Place Temperature

Stations

Nearby Weather Stations

Station Location Temp. Windchill Dew Point Humidity Wind Precip. Elev Updated Type
                   

Watches & Warnings

There are currently no watches in effect.